Time;durP1;ratioP1;P1;durP2;ratioP2;P2;SDS_P1;SDS_P2;PMS_P1;PMS_P2;Temp;Humidity;BMP_temperature;BMP_pressure;BME280_temperature;BME280_humidity;BME280_pressure;Samples;Min_cycle;Max_cycle;Signal;HPM_P1;HPM_P2
2021/08/22 00:00:27;;;;;;;3.60;1.67;;;;;;;21.56;64.82;101391.88;5052764;28;20032;-62
2021/08/22 00:02:53;;;;;;;3.90;2.00;;;;;;;21.55;64.97;101399.00;5052845;28;20115;-61
2021/08/22 00:05:19;;;;;;;3.70;1.80;;;;;;;21.54;64.68;101391.19;5053549;28;20028;-62
2021/08/22 00:07:44;;;;;;;3.55;1.70;;;;;;;21.53;64.76;101392.16;5053327;28;20349;-62
2021/08/22 00:10:10;;;;;;;3.88;1.73;;;;;;;21.53;64.69;101390.31;5052797;28;20052;-62
2021/08/22 00:12:36;;;;;;;4.07;1.85;;;;;;;21.53;64.85;101389.50;5052180;28;20109;-62
2021/08/22 00:15:02;;;;;;;4.32;1.90;;;;;;;21.53;64.75;101379.72;5051156;28;20116;-62
2021/08/22 00:17:27;;;;;;;5.20;1.83;;;;;;;21.52;64.75;101378.06;5052459;28;20181;-62
2021/08/22 00:19:53;;;;;;;3.72;1.83;;;;;;;21.52;64.77;101377.19;5052006;28;20103;-62
2021/08/22 00:22:18;;;;;;;3.30;1.63;;;;;;;21.53;64.83;101376.25;5051643;28;20108;-62
2021/08/22 00:24:43;;;;;;;3.13;1.70;;;;;;;21.52;64.88;101370.09;5051605;28;20302;-62
2021/08/22 00:27:08;;;;;;;3.37;1.73;;;;;;;21.51;64.73;101367.59;5051945;28;20274;-61
2021/08/22 00:29:34;;;;;;;3.08;1.50;;;;;;;21.52;64.93;101369.25;5051118;28;20692;-62
2021/08/22 00:31:59;;;;;;;4.47;1.55;;;;;;;21.52;64.77;101374.56;5051573;28;20036;-62
2021/08/22 00:34:24;;;;;;;3.40;1.65;;;;;;;21.51;64.62;101375.53;5051709;28;20021;-62
2021/08/22 00:36:50;;;;;;;4.22;1.80;;;;;;;21.50;64.87;101374.69;5050007;28;20473;-62
2021/08/22 00:39:16;;;;;;;3.50;1.70;;;;;;;21.50;64.77;101381.81;5051088;28;20116;-62
2021/08/22 00:41:42;;;;;;;4.15;1.80;;;;;;;21.49;65.14;101374.81;5051257;28;20266;-62
2021/08/22 00:44:07;;;;;;;3.55;1.90;;;;;;;21.50;64.60;101382.63;5050633;28;20377;-62
2021/08/22 00:46:37;;;;;;;4.15;1.60;;;;;;;21.50;65.01;101374.69;5051394;28;20094;-61
2021/08/22 00:49:04;;;;;;;3.65;1.90;;;;;;;21.49;64.74;101372.16;5050716;28;20112;-63
2021/08/22 00:51:29;;;;;;;2.95;1.60;;;;;;;21.47;64.73;101366.13;5050111;28;20037;-62
2021/08/22 00:53:54;;;;;;;3.37;1.57;;;;;;;21.47;64.81;101372.28;5050950;28;20483;-61
2021/08/22 00:56:20;;;;;;;3.58;1.83;;;;;;;21.48;64.51;101363.38;5050522;28;20272;-61
2021/08/22 00:58:45;;;;;;;3.40;1.80;;;;;;;21.48;64.64;101366.03;5050879;28;20055;-62
2021/08/22 01:01:17;;;;;;;2.72;1.30;;;;;;;21.49;64.65;101367.72;5051899;28;20048;-61
2021/08/22 01:03:54;;;;;;;4.53;1.80;;;;;;;21.49;64.81;101370.38;5051335;28;20381;-62
2021/08/22 01:06:56;;;;;;;4.47;1.80;;;;;;;21.47;64.87;101359.00;5055298;28;20021;-62
2021/08/22 01:09:40;;;;;;;2.88;1.50;;;;;;;21.45;64.89;101355.66;5055679;28;20399;-62
2021/08/22 01:12:11;;;;;;;3.83;1.60;;;;;;;21.47;64.66;101364.31;5054643;28;20029;-61
2021/08/22 01:14:42;;;;;;;3.13;1.77;;;;;;;21.46;64.92;101360.00;5056015;28;20036;-61
2021/08/22 01:17:07;;;;;;;3.30;1.70;;;;;;;21.47;64.84;101352.88;5054829;28;20032;-62
2021/08/22 01:20:04;;;;;;;2.92;1.60;;;;;;;21.46;64.91;101356.50;5054238;28;20029;-61
2021/08/22 01:22:32;;;;;;;3.15;1.70;;;;;;;21.47;64.86;101358.19;5055403;28;20044;-63
2021/08/22 01:25:02;;;;;;;4.55;1.70;;;;;;;21.46;64.94;101353.84;5054115;28;20109;-62
2021/08/22 01:27:32;;;;;;;3.75;2.13;;;;;;;21.46;64.85;101351.19;5054890;28;20032;-62
2021/08/22 01:30:04;;;;;;;3.67;2.05;;;;;;;21.45;64.68;101347.72;5054538;28;20032;-62
2021/08/22 01:32:35;;;;;;;3.55;1.70;;;;;;;21.46;64.94;101359.13;5054111;28;20025;-62
2021/08/22 01:35:09;;;;;;;3.55;1.90;;;;;;;21.44;64.74;101348.66;5055166;28;20094;-62
2021/08/22 01:37:37;;;;;;;3.53;1.65;;;;;;;21.45;64.90;101357.47;5054718;28;20029;-61
2021/08/22 01:40:05;;;;;;;3.38;1.88;;;;;;;21.44;65.04;101358.44;5053706;28;20024;-62
2021/08/22 01:42:33;;;;;;;3.60;1.80;;;;;;;21.44;64.99;101355.78;5054619;28;20017;-62
2021/08/22 01:45:06;;;;;;;4.03;1.92;;;;;;;21.45;64.76;101360.13;5054244;28;20017;-62
2021/08/22 01:47:33;;;;;;;4.35;2.03;;;;;;;21.42;65.00;101355.94;5053710;28;20373;-62
2021/08/22 01:49:58;;;;;;;3.85;1.73;;;;;;;21.43;64.91;101356.75;5053928;28;20049;-61
2021/08/22 01:52:24;;;;;;;4.07;2.15;;;;;;;21.44;64.95;101358.44;5054412;28;20078;-61
2021/08/22 01:54:49;;;;;;;4.10;1.88;;;;;;;21.45;64.72;101362.78;5053471;28;20044;-62
2021/08/22 01:57:14;;;;;;;3.80;1.98;;;;;;;21.46;64.84;101367.09;5054374;28;20481;-61
2021/08/22 01:59:40;;;;;;;4.30;2.10;;;;;;;21.44;64.96;101366.41;5053982;28;20111;-62
2021/08/22 02:02:10;;;;;;;4.15;2.15;;;;;;;21.44;64.79;101369.88;5054071;28;20100;-61
2021/08/22 02:04:47;;;;;;;5.85;2.65;;;;;;;21.38;65.02;101360.66;5054465;28;20032;-61
2021/08/22 02:07:15;;;;;;;4.32;2.80;;;;;;;21.43;64.92;101376.19;5053779;28;20068;-62
2021/08/22 02:10:05;;;;;;;4.22;2.55;;;;;;;21.44;64.84;101377.00;5054087;28;20025;-61
2021/08/22 02:12:52;;;;;;;4.80;3.00;;;;;;;21.43;65.06;101381.47;5044542;28;20033;-61
2021/08/22 02:15:31;;;;;;;6.25;2.90;;;;;;;21.41;64.72;101372.81;5052764;28;20033;-62
2021/08/22 02:18:11;;;;;;;5.10;3.00;;;;;;;21.42;64.97;101371.84;5053554;28;20108;-61
2021/08/22 02:20:38;;;;;;;5.57;3.30;;;;;;;21.42;64.85;101379.78;5053450;28;20052;-62
2021/08/22 02:23:04;;;;;;;5.40;3.58;;;;;;;21.42;64.86;101371.84;5053231;28;20074;-62
2021/08/22 02:25:31;;;;;;;7.55;3.50;;;;;;;21.42;64.92;101373.66;5053787;28;20112;-62
2021/08/22 02:27:58;;;;;;;5.88;3.63;;;;;;;21.42;65.06;101371.00;5052714;28;20735;-62
2021/08/22 02:30:23;;;;;;;5.65;3.33;;;;;;;21.42;65.00;101363.06;5053287;28;20033;-62
2021/08/22 02:32:49;;;;;;;5.65;3.72;;;;;;;21.42;64.97;101371.84;5053820;28;20096;-61
2021/08/22 02:35:14;;;;;;;6.63;3.50;;;;;;;21.41;64.78;101364.84;5053023;28;20510;-63
2021/08/22 02:37:40;;;;;;;5.88;3.47;;;;;;;21.41;64.89;101364.00;5053498;28;20025;-62
2021/08/22 02:40:06;;;;;;;5.88;3.95;;;;;;;21.41;64.83;101369.31;5053103;28;20028;-62
2021/08/22 02:42:31;;;;;;;6.10;3.97;;;;;;;21.40;64.85;101368.50;5052660;28;20105;-62
2021/08/22 02:44:57;;;;;;;5.95;3.67;;;;;;;21.40;64.96;101379.09;5052772;28;20024;-61
2021/08/22 02:47:25;;;;;;;6.30;4.20;;;;;;;21.41;65.08;101372.81;5053333;28;20017;-62
2021/08/22 02:49:50;;;;;;;6.22;4.20;;;;;;;21.40;64.95;101379.09;5052282;28;20023;-62
2021/08/22 02:52:15;;;;;;;5.97;4.45;;;;;;;21.41;64.87;101382.56;5052308;28;20120;-62
2021/08/22 02:54:41;;;;;;;5.78;4.10;;;;;;;21.40;64.86;101380.91;5053172;28;20025;-62
2021/08/22 02:57:08;;;;;;;6.60;4.45;;;;;;;21.41;65.03;101374.63;5051978;28;20121;-62
2021/08/22 02:59:34;;;;;;;5.97;4.47;;;;;;;21.38;64.87;101373.09;5052744;28;20515;-62
2021/08/22 03:01:59;;;;;;;6.38;4.38;;;;;;;21.40;64.82;101375.63;5052542;28;20077;-62
2021/08/22 03:04:25;;;;;;;7.45;4.70;;;;;;;21.41;64.86;101374.63;5052177;28;20044;-61
2021/08/22 03:06:50;;;;;;;5.80;4.15;;;;;;;21.40;64.88;101372.97;5052731;28;20029;-62
2021/08/22 03:09:16;;;;;;;6.88;5.07;;;;;;;21.39;65.02;101377.41;5052835;28;20100;-62
2021/08/22 03:11:41;;;;;;;6.90;4.63;;;;;;;21.39;65.28;101377.41;5051989;28;20306;-62
2021/08/22 03:14:09;;;;;;;5.97;4.15;;;;;;;21.39;64.96;101377.41;5052370;28;20294;-62
2021/08/22 03:16:38;;;;;;;6.57;4.65;;;;;;;21.38;64.98;101383.69;5052872;28;20024;-62
2021/08/22 03:19:03;;;;;;;7.35;5.15;;;;;;;21.38;64.77;101376.56;5051563;28;20511;-62
2021/08/22 03:21:29;;;;;;;7.10;4.53;;;;;;;21.38;65.07;101373.94;5052575;28;20017;-62
2021/08/22 03:23:55;;;;;;;6.75;4.47;;;;;;;21.39;64.81;101372.09;5051414;28;20029;-61
2021/08/22 03:26:20;;;;;;;7.18;4.88;;;;;;;21.39;64.68;101374.75;5052500;28;20028;-62
2021/08/22 03:28:45;;;;;;;6.90;5.18;;;;;;;21.38;64.94;101368.63;5051172;28;20029;-62
2021/08/22 03:31:10;;;;;;;7.97;5.53;;;;;;;21.39;65.03;101372.09;5051652;28;20074;-61
2021/08/22 03:33:36;;;;;;;9.25;5.80;;;;;;;21.39;64.87;101374.75;5052658;28;20336;-61
2021/08/22 03:36:01;;;;;;;7.32;5.07;;;;;;;21.38;65.04;101371.28;5052344;28;20021;-61
2021/08/22 03:38:27;;;;;;;7.80;5.43;;;;;;;21.38;65.01;101373.09;5051493;28;20028;-62
2021/08/22 03:40:52;;;;;;;8.55;5.63;;;;;;;21.38;65.09;101376.56;5051963;28;20170;-63
2021/08/22 03:43:17;;;;;;;9.40;5.85;;;;;;;21.37;64.83;101376.72;5052213;28;20029;-61
2021/08/22 03:45:43;;;;;;;7.07;5.30;;;;;;;21.37;64.88;101374.88;5051624;28;20025;-61
2021/08/22 03:48:08;;;;;;;7.88;5.50;;;;;;;21.37;64.68;101372.22;5052281;28;20071;-62
2021/08/22 03:50:34;;;;;;;9.23;5.87;;;;;;;21.35;65.04;101382.13;5052262;28;20044;-62
2021/08/22 03:52:59;;;;;;;8.38;5.82;;;;;;;21.35;64.68;101379.50;5051449;28;20277;-63
2021/08/22 03:55:24;;;;;;;7.85;5.55;;;;;;;21.37;65.07;101380.19;5052133;28;20021;-62
2021/08/22 03:57:52;;;;;;;8.13;5.57;;;;;;;21.36;64.82;101383.84;5051982;28;20029;-63
2021/08/22 04:00:17;;;;;;;7.68;5.35;;;;;;;21.35;65.12;101384.78;5051689;28;20316;-61
2021/08/22 04:02:46;;;;;;;8.43;5.63;;;;;;;21.37;65.05;101384.66;5052575;28;20029;-62
2021/08/22 04:05:12;;;;;;;7.07;5.70;;;;;;;21.36;64.84;101385.63;5052199;28;20277;-61
2021/08/22 04:07:44;;;;;;;8.35;6.07;;;;;;;21.35;64.90;101376.00;5051323;28;20048;-62
2021/08/22 04:10:09;;;;;;;8.77;5.72;;;;;;;21.33;64.79;101373.50;5051979;28;20021;-62
2021/08/22 04:12:36;;;;;;;8.38;6.03;;;;;;;21.36;64.78;101375.88;5051851;28;20526;-62
2021/08/22 04:15:01;;;;;;;8.05;6.20;;;;;;;21.35;65.06;101381.31;5050997;28;20025;-62
2021/08/22 04:17:26;;;;;;;7.38;5.88;;;;;;;21.33;65.06;101376.13;5051999;28;20029;-61
2021/08/22 04:19:51;;;;;;;7.57;5.93;;;;;;;21.35;64.92;101382.13;5051572;28;20107;-62
2021/08/22 04:22:17;;;;;;;8.87;6.37;;;;;;;21.34;65.03;101377.81;5051421;28;20021;-61
2021/08/22 04:24:42;;;;;;;7.70;5.95;;;;;;;21.34;64.84;101377.81;5051802;28;20274;-61
2021/08/22 04:27:07;;;;;;;8.50;5.95;;;;;;;21.35;64.77;101384.78;5051373;28;20162;-62
2021/08/22 04:29:38;;;;;;;8.65;6.68;;;;;;;21.35;64.89;101381.31;5051248;28;20035;-61
2021/08/22 04:32:04;;;;;;;8.13;6.63;;;;;;;21.33;64.75;101380.59;5051559;28;20358;-62
2021/08/22 04:34:29;;;;;;;9.32;6.35;;;;;;;21.34;64.92;101385.75;5050903;28;20021;-61
2021/08/22 04:36:54;;;;;;;7.47;5.95;;;;;;;21.34;64.79;101382.28;5051402;28;20421;-62
2021/08/22 04:39:20;;;;;;;8.30;6.10;;;;;;;21.32;64.87;101385.06;5053236;28;20041;-62
2021/08/22 04:41:45;;;;;;;7.53;6.25;;;;;;;21.33;64.92;101388.53;5054604;28;20350;-62
2021/08/22 04:44:11;;;;;;;8.52;6.20;;;;;;;21.32;64.72;101370.97;5055723;28;20025;-62
2021/08/22 04:46:37;;;;;;;7.93;6.13;;;;;;;21.33;64.91;101373.50;5055449;28;20051;-61
2021/08/22 04:49:03;;;;;;;10.35;6.40;;;;;;;21.32;64.77;101382.41;5054318;28;20501;-61
2021/08/22 04:51:28;;;;;;;9.32;7.30;;;;;;;21.33;64.77;101386.75;5055200;28;20430;-62
2021/08/22 04:53:57;;;;;;;7.80;6.20;;;;;;;21.34;64.83;101391.06;5055121;28;20025;-62
2021/08/22 04:56:23;;;;;;;9.25;7.00;;;;;;;21.27;64.55;101379.31;5054581;28;20477;-61
2021/08/22 04:58:49;;;;;;;8.23;6.20;;;;;;;21.32;64.79;101393.00;5054991;28;20029;-62
2021/08/22 05:01:15;;;;;;;8.15;6.53;;;;;;;21.32;64.79;101395.66;5055361;28;20021;-61
2021/08/22 05:03:41;;;;;;;9.35;7.03;;;;;;;21.34;64.77;101392.88;5054335;28;20017;-61
2021/08/22 05:06:07;;;;;;;8.90;6.57;;;;;;;21.32;64.71;101393.00;5054758;28;20419;-62
2021/08/22 05:08:32;;;;;;;9.18;7.25;;;;;;;21.33;64.78;101391.19;5055053;28;20013;-61
2021/08/22 05:10:57;;;;;;;8.00;6.50;;;;;;;21.32;64.61;101393.00;5053870;28;20108;-62
2021/08/22 05:13:23;;;;;;;7.37;6.30;;;;;;;21.32;64.80;101398.31;5055155;28;20660;-62
2021/08/22 05:15:50;;;;;;;9.90;6.75;;;;;;;21.33;64.68;101396.50;5054511;28;20273;-62
2021/08/22 05:18:19;;;;;;;7.90;6.72;;;;;;;21.32;64.76;101397.47;5054186;28;20143;-62
2021/08/22 05:20:45;;;;;;;7.97;6.35;;;;;;;21.33;64.66;101401.78;5054641;28;20029;-62
2021/08/22 05:23:11;;;;;;;7.50;6.30;;;;;;;21.31;64.69;101404.56;5054741;28;20021;-61
2021/08/22 05:25:36;;;;;;;7.90;6.63;;;;;;;21.32;64.83;101397.47;5053976;28;20111;-61
2021/08/22 05:28:01;;;;;;;8.27;5.90;;;;;;;21.32;64.67;101394.84;5054565;28;20119;-62
2021/08/22 05:30:27;;;;;;;9.18;6.63;;;;;;;21.32;64.69;101402.78;5054834;28;20313;-63
2021/08/22 05:32:52;;;;;;;8.40;6.47;;;;;;;21.31;64.73;101401.94;5053812;28;20025;-62
2021/08/22 05:35:17;;;;;;;8.85;6.85;;;;;;;21.30;64.64;101399.41;5054599;28;20032;-62
2021/08/22 05:37:42;;;;;;;9.02;6.68;;;;;;;21.27;64.89;101397.88;5053743;28;20025;-62
2021/08/22 05:40:08;;;;;;;7.43;6.30;;;;;;;21.30;64.63;101405.56;5054243;28;20021;-61
2021/08/22 05:42:34;;;;;;;7.82;6.20;;;;;;;21.30;64.56;101405.56;5054391;28;20558;-62
2021/08/22 05:44:59;;;;;;;8.65;6.35;;;;;;;21.32;64.74;101402.78;5053549;28;20104;-62
2021/08/22 05:47:24;;;;;;;9.65;6.45;;;;;;;21.31;64.63;101401.94;5054477;28;20028;-62
2021/08/22 05:49:52;;;;;;;9.00;6.50;;;;;;;21.29;64.63;101400.41;5053754;28;20365;-61
2021/08/22 05:52:18;;;;;;;8.10;5.95;;;;;;;21.28;64.62;101399.53;5052992;28;20032;-62
2021/08/22 05:54:43;;;;;;;8.73;6.47;;;;;;;21.29;64.77;101398.56;5053882;28;20437;-61
2021/08/22 05:57:09;;;;;;;7.95;6.18;;;;;;;21.31;64.69;101404.56;5054415;28;20041;-62
2021/08/22 05:59:35;;;;;;;9.05;6.03;;;;;;;21.30;64.67;101402.06;5053451;28;20055;-62
2021/08/22 06:02:00;;;;;;;7.75;6.18;;;;;;;21.30;64.88;101402.91;5054222;28;20155;-61
2021/08/22 06:04:26;;;;;;;7.47;6.05;;;;;;;21.31;64.61;101403.75;5054260;28;20459;-61
2021/08/22 06:06:51;;;;;;;8.88;6.32;;;;;;;21.32;64.68;101408.09;5053182;28;20048;-61
2021/08/22 06:09:17;;;;;;;8.30;5.40;;;;;;;21.31;64.44;101404.56;5054072;28;20032;-62
2021/08/22 06:11:42;;;;;;;7.22;5.38;;;;;;;21.32;64.73;101408.09;5054187;28;20464;-62
2021/08/22 06:14:07;;;;;;;9.75;5.90;;;;;;;21.29;64.44;101411.81;5053126;28;20055;-62
2021/08/22 06:16:33;;;;;;;6.53;5.37;;;;;;;21.30;64.74;101410.88;5054066;28;20025;-61
2021/08/22 06:18:59;;;;;;;6.65;5.53;;;;;;;21.25;64.50;101398.97;5053375;28;21008;-62
2021/08/22 06:21:24;;;;;;;7.53;5.38;;;;;;;21.32;64.75;101418.69;5052987;28;20465;-62
2021/08/22 06:23:49;;;;;;;8.52;5.72;;;;;;;21.30;64.60;101410.88;5053196;28;20024;-61
2021/08/22 06:26:15;;;;;;;6.85;5.43;;;;;;;21.32;64.46;101416.03;5053911;28;20086;-60
2021/08/22 06:28:40;;;;;;;6.60;5.47;;;;;;;21.32;64.55;101424.81;5053167;28;20178;-60
2021/08/22 06:31:05;;;;;;;6.80;5.10;;;;;;;21.33;64.72;101417.69;5053933;28;20025;-60
2021/08/22 06:33:30;;;;;;;7.57;5.38;;;;;;;21.33;64.73;101421.22;5053558;28;20266;-60
2021/08/22 06:36:10;;;;;;;7.20;5.37;;;;;;;21.33;64.68;101415.91;5052488;28;20380;-61
2021/08/22 06:38:36;;;;;;;6.85;5.47;;;;;;;21.35;64.75;101423.72;5053303;28;20344;-62
2021/08/22 06:41:01;;;;;;;7.28;5.45;;;;;;;21.35;65.05;101415.78;5052358;28;20178;-64
2021/08/22 06:43:27;;;;;;;6.82;5.22;;;;;;;21.37;65.13;101421.78;5053536;28;20025;-64
2021/08/22 06:45:52;;;;;;;8.10;5.88;;;;;;;21.37;65.31;101414.66;5053051;28;20433;-63
2021/08/22 06:48:17;;;;;;;8.32;4.93;;;;;;;21.42;65.26;101432.00;5052273;28;20027;-62
2021/08/22 06:50:43;;;;;;;7.40;5.10;;;;;;;21.40;65.33;101421.50;5052945;28;20061;-61
2021/08/22 06:53:08;;;;;;;7.65;5.10;;;;;;;21.45;65.32;101427.25;5054986;28;20106;-61
2021/08/22 06:55:34;;;;;;;6.55;4.97;;;;;;;21.47;65.44;101427.13;5053563;28;20434;-61
2021/08/22 06:58:02;;;;;;;6.65;4.93;;;;;;;21.50;65.43;101418.94;5054011;28;20087;-62
2021/08/22 07:00:30;;;;;;;8.38;5.30;;;;;;;21.52;65.32;101423.16;5054545;28;20017;-63
2021/08/22 07:02:58;;;;;;;7.43;4.78;;;;;;;21.52;65.32;101428.44;5052398;28;20024;-63
2021/08/22 07:05:23;;;;;;;7.28;4.95;;;;;;;21.54;65.32;101431.81;5054822;28;20071;-63
2021/08/22 07:07:52;;;;;;;7.22;4.88;;;;;;;21.52;65.31;101424.94;5055815;28;20029;-65
2021/08/22 07:10:17;;;;;;;6.85;4.50;;;;;;;21.56;65.44;101431.66;5052862;28;20029;-64
2021/08/22 07:12:42;;;;;;;8.30;4.70;;;;;;;21.57;65.42;101436.00;5053304;28;20040;-62
2021/08/22 07:15:11;;;;;;;8.02;4.05;;;;;;;21.55;65.36;101438.78;5052658;28;20018;-60
2021/08/22 07:17:36;;;;;;;8.52;4.60;;;;;;;21.51;65.61;101428.59;5051944;28;20468;-63
2021/08/22 07:20:02;;;;;;;6.93;4.20;;;;;;;21.61;65.86;101434.75;5052929;28;20078;-63
2021/08/22 07:22:31;;;;;;;8.57;4.90;;;;;;;21.65;66.25;101441.47;5053363;28;20078;-64
2021/08/22 07:24:59;;;;;;;9.05;4.82;;;;;;;21.63;66.84;101430.16;5052283;28;20041;-70
2021/08/22 07:27:25;;;;;;;10.73;5.40;;;;;;;21.69;67.37;101432.25;5053069;28;20029;-68
2021/08/22 07:29:50;;;;;;;9.82;5.05;;;;;;;21.72;67.75;101429.34;5053226;28;20021;-67
2021/08/22 07:32:16;;;;;;;9.57;5.10;;;;;;;21.75;67.76;101425.59;5052908;28;20465;-67
2021/08/22 07:34:41;;;;;;;10.48;5.57;;;;;;;21.78;67.77;101430.63;5053798;28;20461;-68
2021/08/22 07:37:07;;;;;;;10.95;5.07;;;;;;;21.78;67.91;101435.94;5051984;28;20025;-68
2021/08/22 07:39:35;;;;;;;8.88;4.90;;;;;;;21.80;67.88;101422.53;5053390;28;20029;-67
2021/08/22 07:42:01;;;;;;;10.75;5.10;;;;;;;21.78;67.93;101425.34;5054005;28;20053;-68
2021/08/22 07:44:26;;;;;;;9.95;4.88;;;;;;;21.79;67.95;101424.34;5053061;28;20404;-68
2021/08/22 07:46:54;;;;;;;8.40;4.47;;;;;;;21.76;67.80;101419.31;5053150;28;20021;-68
2021/08/22 07:49:19;;;;;;;8.23;4.97;;;;;;;21.77;67.54;101417.50;5054058;28;20045;-68
2021/08/22 07:51:48;;;;;;;7.95;4.63;;;;;;;21.76;67.52;101435.22;5051308;28;20053;-65
2021/08/22 07:54:14;;;;;;;8.13;4.35;;;;;;;21.77;67.55;101436.06;5052194;28;20032;-67
2021/08/22 07:56:43;;;;;;;7.38;4.00;;;;;;;21.76;67.55;101437.03;5052356;28;20021;-67
2021/08/22 07:59:09;;;;;;;8.55;4.60;;;;;;;21.77;67.60;101428.13;5051050;28;20040;-67
2021/08/22 08:01:35;;;;;;;8.30;4.70;;;;;;;21.77;67.44;101428.94;5052179;28;20033;-65
2021/08/22 08:04:00;;;;;;;8.52;4.45;;;;;;;21.76;67.34;101431.72;5051856;28;20476;-65
2021/08/22 08:06:26;;;;;;;6.35;4.05;;;;;;;21.77;67.42;101436.91;5051725;28;20092;-63
2021/08/22 08:08:51;;;;;;;6.93;3.80;;;;;;;21.75;67.26;101438.88;5052091;28;20378;-63
2021/08/22 08:11:16;;;;;;;7.22;4.40;;;;;;;21.74;67.18;101442.47;5052126;28;20024;-61
2021/08/22 08:13:41;;;;;;;6.28;4.57;;;;;;;21.70;67.23;101436.59;5050940;28;20040;-61
2021/08/22 08:16:07;;;;;;;7.13;4.80;;;;;;;21.69;67.29;101439.41;5051894;28;20031;-60
2021/08/22 08:18:33;;;;;;;8.93;4.57;;;;;;;21.63;67.09;101438.09;5052343;28;20685;-61
2021/08/22 08:21:01;;;;;;;7.00;4.65;;;;;;;21.60;67.14;101437.53;5050890;28;20375;-62
2021/08/22 08:23:27;;;;;;;6.57;4.15;;;;;;;21.57;67.20;101441.31;5052119;28;20028;-61
2021/08/22 08:25:52;;;;;;;6.80;4.10;;;;;;;21.54;67.45;101441.56;5052113;28;20017;-65
2021/08/22 08:28:18;;;;;;;5.70;3.78;;;;;;;21.56;67.59;101442.28;5051843;28;20730;-65
2021/08/22 08:30:44;;;;;;;6.30;3.40;;;;;;;21.59;67.53;101449.97;5052232;28;20029;-63
2021/08/22 08:33:09;;;;;;;6.15;3.75;;;;;;;21.62;67.32;101448.84;5051778;28;20024;-63
2021/08/22 08:35:35;;;;;;;5.40;3.30;;;;;;;21.63;67.54;101448.72;5050886;28;20024;-64
2021/08/22 08:38:03;;;;;;;6.57;3.22;;;;;;;21.66;67.70;101453.75;5051373;28;20120;-64
2021/08/22 08:40:28;;;;;;;6.20;3.47;;;;;;;21.70;67.08;101451.69;5051107;28;20021;-62
2021/08/22 08:43:20;;;;;;;5.78;2.90;;;;;;;21.71;67.21;101459.53;5051437;28;20038;-60
2021/08/22 08:45:53;;;;;;;6.88;2.78;;;;;;;21.73;67.25;101459.38;5036821;28;20395;-63
2021/08/22 08:48:34;;;;;;;5.78;3.25;;;;;;;21.72;67.34;101460.34;5051347;28;20029;-66
2021/08/22 08:51:04;;;;;;;7.25;3.35;;;;;;;21.75;67.20;101460.09;5051497;28;20064;-64
2021/08/22 08:53:35;;;;;;;6.20;3.35;;;;;;;21.76;67.15;101471.53;5051624;28;20029;-61
2021/08/22 08:56:07;;;;;;;7.75;3.28;;;;;;;21.74;67.41;101459.22;5050477;28;20074;-62
2021/08/22 08:58:32;;;;;;;6.13;3.30;;;;;;;21.77;67.38;101470.56;5051891;28;20036;-65
2021/08/22 09:00:57;;;;;;;4.88;2.90;;;;;;;21.78;67.09;101462.47;5051392;28;20028;-65
2021/08/22 09:03:24;;;;;;;7.32;3.20;;;;;;;21.70;67.25;101449.03;5051013;28;20372;-65
2021/08/22 09:06:04;;;;;;;5.22;3.00;;;;;;;21.82;67.19;101457.72;5051628;28;20043;-65
2021/08/22 09:08:57;;;;;;;5.85;2.92;;;;;;;21.83;67.10;101462.06;5051558;28;20036;-64
2021/08/22 09:12:15;;;;;;;6.25;3.22;;;;;;;21.85;67.02;101458.28;5051865;28;20068;-63
2021/08/22 09:15:18;;;;;;;5.75;2.55;;;;;;;21.87;66.92;101463.47;5051699;28;20024;-63
2021/08/22 09:18:18;;;;;;;5.00;2.80;;;;;;;21.87;66.98;101461.69;5050832;28;20536;-67
2021/08/22 09:21:02;;;;;;;5.70;2.78;;;;;;;21.86;66.89;101459.97;5051302;28;20033;-66
2021/08/22 09:24:07;;;;;;;5.75;2.90;;;;;;;21.88;67.01;101459.84;5051180;28;20040;-65
2021/08/22 09:26:35;;;;;;;;;;;;;;;21.88;66.95;101462.50;5053567;28;20082;-65
2021/08/22 09:29:42;;;;;;;5.47;2.92;;;;;;;21.88;66.89;101460.69;5054884;28;19913;-65
2021/08/22 09:32:45;;;;;;;5.28;2.45;;;;;;;21.88;66.94;101465.16;5025783;28;20103;-63
2021/08/22 09:35:25;;;;;;;4.78;2.60;;;;;;;21.87;67.02;101466.13;5055175;28;20146;-64
2021/08/22 09:38:19;;;;;;;5.15;3.08;;;;;;;21.86;66.81;101472.41;5054346;28;20064;-64
2021/08/22 09:41:22;;;;;;;5.47;2.80;;;;;;;21.85;66.71;101473.38;5055407;28;20037;-64
2021/08/22 09:44:24;;;;;;;5.88;2.70;;;;;;;21.84;66.77;101474.34;5053902;28;20052;-64
2021/08/22 09:47:11;;;;;;;4.90;2.55;;;;;;;21.85;66.98;101476.88;5054669;28;20032;-63
2021/08/22 09:50:23;;;;;;;5.20;2.75;;;;;;;21.87;66.89;101482.03;5054835;28;20071;-64
2021/08/22 09:53:26;;;;;;;5.22;2.80;;;;;;;21.87;66.79;101479.38;5053790;28;20115;-62
2021/08/22 09:56:19;;;;;;;6.20;2.50;;;;;;;21.89;66.73;101480.94;5054522;28;20036;-65
2021/08/22 09:59:15;;;;;;;6.57;2.65;;;;;;;21.91;66.67;101488.78;5054187;28;20065;-66
2021/08/22 10:02:02;;;;;;;4.90;2.40;;;;;;;21.92;66.68;101479.81;5054609;28;20116;-63
2021/08/22 10:05:13;;;;;;;7.57;2.60;;;;;;;21.92;66.58;101490.44;5053993;28;20025;-63
2021/08/22 10:08:04;;;;;;;6.05;3.53;;;;;;;21.91;66.75;101478.97;5017204;28;20040;-64
2021/08/22 10:10:36;;;;;;;5.10;2.55;;;;;;;21.93;66.74;101485.00;5053605;28;20055;-64
2021/08/22 10:13:02;;;;;;;5.65;2.70;;;;;;;21.96;66.72;101489.19;5053375;28;20045;-61
2021/08/22 10:15:28;;;;;;;5.47;2.40;;;;;;;21.97;66.72;101485.59;5054554;28;20024;-64
2021/08/22 10:17:53;;;;;;;4.50;2.60;;;;;;;21.97;66.78;101488.25;5054413;28;20029;-65
2021/08/22 10:20:18;;;;;;;4.20;2.40;;;;;;;21.96;66.60;101480.41;5053576;28;20063;-64
2021/08/22 10:22:45;;;;;;;4.60;2.45;;;;;;;21.97;66.74;101488.25;5053778;28;20376;-64
2021/08/22 10:25:13;;;;;;;6.45;2.80;;;;;;;21.97;66.43;101490.88;5054353;28;20075;-62
2021/08/22 10:27:43;;;;;;;5.80;2.70;;;;;;;21.98;66.70;101481.09;5053197;28;20366;-66
2021/08/22 10:30:11;;;;;;;5.95;2.30;;;;;;;21.98;66.54;101478.44;5054250;28;20029;-62
2021/08/22 10:32:58;;;;;;;5.97;2.70;;;;;;;21.99;66.38;101488.09;5054050;28;20033;-63
2021/08/22 10:35:27;;;;;;;5.10;2.47;;;;;;;21.94;66.44;101480.53;5053941;28;20025;-63
2021/08/22 10:37:52;;;;;;;5.43;2.67;;;;;;;21.98;66.63;101479.28;5052817;28;20438;-65
2021/08/22 10:40:23;;;;;;;4.75;2.38;;;;;;;21.99;66.31;101480.16;5053247;28;20533;-63
2021/08/22 10:42:49;;;;;;;4.40;2.40;;;;;;;21.99;66.41;101475.66;5053415;28;20025;-62
2021/08/22 10:45:39;;;;;;;4.80;2.33;;;;;;;22.01;66.62;101470.22;5053852;28;20032;-64
2021/08/22 10:48:05;;;;;;;4.90;2.50;;;;;;;22.02;66.60;101469.25;5052502;28;20128;-62
2021/08/22 10:50:30;;;;;;;4.85;2.50;;;;;;;22.04;66.52;101459.34;5053392;28;20126;-63
2021/08/22 10:53:27;;;;;;;6.07;2.75;;;;;;;22.05;66.25;101451.25;5053816;28;20029;-61
2021/08/22 10:55:53;;;;;;;3.97;2.13;;;;;;;22.07;66.35;101448.44;5052517;28;20025;-63
2021/08/22 10:58:22;;;;;;;4.97;2.42;;;;;;;22.07;66.32;101446.63;5054726;28;20025;-63
2021/08/22 11:01:10;;;;;;;5.70;2.30;;;;;;;22.09;66.34;101446.50;5053881;28;20136;-63
2021/08/22 11:03:35;;;;;;;5.80;2.42;;;;;;;22.10;66.17;101435.75;5053161;28;20040;-63
2021/08/22 11:06:04;;;;;;;4.67;2.47;;;;;;;22.12;66.32;101442.75;5053029;28;20017;-62
2021/08/22 11:08:32;;;;;;;4.15;2.30;;;;;;;22.12;66.13;101438.25;5052677;28;20098;-66
2021/08/22 11:11:02;;;;;;;4.43;2.70;;;;;;;22.12;66.15;101438.25;5053032;28;20463;-62
2021/08/22 11:13:35;;;;;;;4.97;2.53;;;;;;;22.13;66.31;101444.41;5053058;28;20025;-63
2021/08/22 11:16:02;;;;;;;5.78;2.90;;;;;;;22.13;66.08;101439.09;5052254;28;20428;-62
2021/08/22 11:18:27;;;;;;;6.28;2.67;;;;;;;22.13;66.08;101437.28;5051648;28;20083;-61
2021/08/22 11:20:53;;;;;;;4.93;2.80;;;;;;;22.10;66.01;101435.75;5052803;28;20050;-62
2021/08/22 11:23:18;;;;;;;5.30;2.80;;;;;;;22.09;65.81;101430.56;5052182;28;20767;-65
2021/08/22 11:25:46;;;;;;;5.70;2.47;;;;;;;22.10;66.31;101435.75;5051875;28;20313;-64
2021/08/22 11:28:13;;;;;;;5.50;2.38;;;;;;;22.12;65.98;101434.78;5053262;28;20025;-63
2021/08/22 11:30:40;;;;;;;4.65;2.25;;;;;;;22.11;66.40;101431.25;5052317;28;20029;-63
2021/08/22 11:33:07;;;;;;;6.25;2.58;;;;;;;22.12;66.09;101437.44;5052655;28;20021;-62
2021/08/22 11:35:37;;;;;;;4.50;2.40;;;;;;;22.08;65.85;101427.09;5052672;28;20033;-60